Time;durP1;ratioP1;P1;durP2;ratioP2;P2;SDS_P1;SDS_P2;PMS_P1;PMS_P2;Temp;Humidity;BMP_temperature;BMP_pressure;BME280_temperature;BME280_humidity;BME280_pressure;Samples;Min_cycle;Max_cycle;Signal;HPM_P1;HPM_P2
2022/06/02 00:01:45;;;;;;;4.70;2.28;;;;;;;17.02;65.49;94970.84;5070763;28;20033;-72
2022/06/02 00:04:28;;;;;;;3.80;2.08;;;;;;;16.92;65.94;94963.94;5053476;28;20160;-72
2022/06/02 00:07:38;;;;;;;6.55;2.30;;;;;;;16.84;66.29;94966.56;5052846;28;20029;-71
2022/06/02 00:10:24;;;;;;;3.05;2.00;;;;;;;16.77;66.30;94960.34;5010794;28;20096;-72
2022/06/02 00:12:59;;;;;;;4.22;2.13;;;;;;;16.73;66.50;94972.91;4994811;28;20585;-71
2022/06/02 00:15:28;;;;;;;3.75;2.33;;;;;;;16.73;66.36;94966.84;5031493;28;20132;-71
2022/06/02 00:17:59;;;;;;;3.72;2.40;;;;;;;16.78;66.40;94969.03;5033042;28;20141;-72
2022/06/02 00:21:03;;;;;;;5.65;2.20;;;;;;;16.82;66.28;94965.91;5049294;28;20479;-71
2022/06/02 00:23:46;;;;;;;3.05;2.40;;;;;;;16.83;66.21;94959.69;4997101;28;20156;-72
2022/06/02 00:26:38;;;;;;;3.92;2.45;;;;;;;16.77;66.48;94965.59;5049639;28;20063;-72
2022/06/02 00:29:16;;;;;;;6.32;2.40;;;;;;;16.70;67.15;94952.25;5050464;28;20033;-72
2022/06/02 00:31:53;;;;;;;3.28;2.03;;;;;;;16.66;67.65;94955.34;5032586;28;20039;-72
2022/06/02 00:34:42;;;;;;;4.93;2.60;;;;;;;16.68;67.77;94958.63;5049257;28;20120;-73
2022/06/02 00:37:10;;;;;;;4.88;2.42;;;;;;;16.74;67.67;94947.50;5049222;28;20645;-72
2022/06/02 00:39:36;;;;;;;5.10;2.40;;;;;;;16.65;67.75;94951.09;5050420;28;20037;-72
2022/06/02 00:42:33;;;;;;;6.38;2.72;;;;;;;16.64;67.90;94952.06;5033483;28;20048;-72
2022/06/02 00:45:05;;;;;;;4.88;2.50;;;;;;;16.60;67.98;94945.50;5017879;28;20128;-71
2022/06/02 00:47:42;;;;;;;3.05;2.40;;;;;;;16.63;68.05;94942.56;5037106;28;20037;-71
2022/06/02 00:50:23;;;;;;;4.72;2.40;;;;;;;16.64;68.09;94950.28;5054390;28;20037;-72
2022/06/02 00:52:59;;;;;;;4.10;2.50;;;;;;;16.57;68.39;94948.44;5054138;28;20037;-71
2022/06/02 00:58:57;;;;;;;4.60;2.50;;;;;;;16.44;68.73;94941.88;5054524;28;20167;-71
2022/06/02 01:01:34;;;;;;;3.88;2.50;;;;;;;16.50;68.61;94956.97;5052882;28;20086;-72
2022/06/02 01:04:01;;;;;;;4.32;2.60;;;;;;;16.51;68.52;94961.22;5052565;28;20079;-72
2022/06/02 01:06:36;;;;;;;4.47;2.85;;;;;;;16.57;68.47;94961.56;5036137;28;20037;-71
2022/06/02 01:09:15;;;;;;;3.80;2.70;;;;;;;16.58;68.37;94956.16;5061478;28;20032;-72
2022/06/02 01:12:14;;;;;;;5.25;2.67;;;;;;;16.56;68.18;94965.97;5072664;28;20482;-72
2022/06/02 01:15:05;;;;;;;5.05;2.70;;;;;;;16.60;68.23;94969.09;5073560;28;20036;-72
2022/06/02 01:18:01;;;;;;;3.58;2.40;;;;;;;16.55;68.13;94966.97;5072445;28;20035;-72
2022/06/02 01:20:43;;;;;;;4.85;2.90;;;;;;;16.58;68.20;94960.59;5073913;28;20044;-72
2022/06/02 01:23:36;;;;;;;3.25;2.50;;;;;;;16.55;68.38;94966.97;5072448;28;20099;-72
2022/06/02 01:26:07;;;;;;;7.05;2.92;;;;;;;16.48;68.55;94961.53;5073473;28;20490;-71
2022/06/02 01:28:39;;;;;;;3.15;2.53;;;;;;;16.44;68.72;94951.53;5073648;28;20410;-72
2022/06/02 01:31:10;;;;;;;3.00;2.10;;;;;;;16.44;68.63;94952.34;5073346;28;20456;-72
2022/06/02 01:33:55;;;;;;;4.55;2.60;;;;;;;16.46;68.59;94946.94;5073332;28;20055;-72
2022/06/02 01:36:42;;;;;;;5.03;2.90;;;;;;;16.47;68.60;94949.41;5072252;28;20062;-71
2022/06/02 01:39:10;;;;;;;3.70;2.33;;;;;;;16.37;68.79;94951.34;5072280;28;20116;-72
2022/06/02 01:41:49;;;;;;;4.97;2.60;;;;;;;16.33;68.91;94955.28;5073209;28;20568;-71
2022/06/02 01:44:19;;;;;;;3.97;2.83;;;;;;;16.38;68.81;94963.47;5071956;28;20097;-72
2022/06/02 01:47:17;;;;;;;4.93;2.80;;;;;;;16.34;69.14;94956.09;5071989;28;20111;-72
2022/06/02 01:49:56;;;;;;;5.30;3.38;;;;;;;16.41;68.70;94957.91;5049610;28;20567;-71
2022/06/02 01:52:41;;;;;;;4.72;2.38;;;;;;;16.41;68.66;94957.06;5072906;28;20039;-72
2022/06/02 01:55:57;;;;;;;4.00;2.58;;;;;;;16.44;68.37;94956.78;5071838;28;20129;-72
2022/06/02 01:58:35;;;;;;;3.67;2.83;;;;;;;16.44;68.41;94957.59;5049760;28;20072;-71
2022/06/02 02:01:14;;;;;;;4.90;2.58;;;;;;;16.47;67.96;94967.75;5071617;28;20058;-72
2022/06/02 02:03:46;;;;;;;5.10;3.00;;;;;;;16.39;68.44;94959.06;5071575;28;20033;-71
2022/06/02 02:06:35;;;;;;;3.45;2.65;;;;;;;16.33;68.60;94957.91;5072674;28;20032;-72
2022/06/02 02:09:06;;;;;;;5.75;2.72;;;;;;;16.34;68.45;94958.72;5047640;28;20036;-72
2022/06/02 02:11:41;;;;;;;4.03;2.90;;;;;;;16.33;68.61;94960.50;5035485;28;20477;-72
2022/06/02 02:14:28;;;;;;;3.80;2.65;;;;;;;16.27;68.73;94955.91;5052607;28;20404;-72
2022/06/02 02:17:15;;;;;;;3.13;2.83;;;;;;;16.16;68.87;94956.16;5051196;28;20418;-72
2022/06/02 02:19:52;;;;;;;4.75;2.40;;;;;;;16.13;68.78;94951.25;5052277;28;20032;-71
2022/06/02 02:22:33;;;;;;;3.72;2.85;;;;;;;16.13;68.69;94952.09;5051288;28;20533;-71
2022/06/02 02:25:01;;;;;;;4.07;2.83;;;;;;;16.11;68.82;94945.38;5052621;28;20475;-72
2022/06/02 02:30:28;;;;;;;3.60;2.92;;;;;;;16.02;69.07;94941.88;5038858;28;20047;-72
2022/06/02 02:33:12;;;;;;;3.97;2.97;;;;;;;16.02;68.99;94945.31;5051005;28;20024;-72
2022/06/02 02:35:48;;;;;;;5.40;2.92;;;;;;;15.94;69.41;94944.47;5052552;28;20569;-72
2022/06/02 02:38:22;;;;;;;5.90;3.10;;;;;;;15.94;69.69;94944.47;5034894;28;20036;-72
2022/06/02 02:40:58;;;;;;;5.15;2.92;;;;;;;15.88;70.02;94951.16;5034950;28;20033;-71
2022/06/02 02:43:38;;;;;;;6.35;3.25;;;;;;;15.82;70.28;94939.50;5050762;28;20021;-72
2022/06/02 02:46:33;;;;;;;4.22;2.97;;;;;;;15.79;70.53;94944.22;5050665;28;20033;-72
2022/06/02 02:49:21;;;;;;;5.85;3.20;;;;;;;15.84;70.31;94940.16;5050648;28;20044;-71
2022/06/02 02:51:59;;;;;;;5.63;2.90;;;;;;;15.90;69.97;94949.19;5036853;28;20395;-72
2022/06/02 02:54:25;;;;;;;6.00;3.40;;;;;;;15.92;70.13;94952.47;5050538;28;20544;-72
2022/06/02 02:56:59;;;;;;;4.57;3.55;;;;;;;15.86;70.28;94948.69;5050502;28;20053;-72
2022/06/02 02:59:31;;;;;;;5.00;3.20;;;;;;;15.93;70.00;94951.47;5050445;28;20589;-72
2022/06/02 03:02:31;;;;;;;6.55;2.95;;;;;;;15.97;69.64;94960.69;5051662;28;20045;-72
2022/06/02 03:05:15;;;;;;;3.67;2.97;;;;;;;15.93;69.86;94959.34;5031843;28;20068;-72
2022/06/02 03:07:41;;;;;;;6.10;3.03;;;;;;;15.95;69.82;94961.81;5068499;28;20093;-72
2022/06/02 03:10:14;;;;;;;5.07;3.10;;;;;;;15.85;70.07;94954.06;5057022;28;20053;-72
2022/06/02 03:13:04;;;;;;;4.88;3.17;;;;;;;15.89;70.16;94960.66;5064926;28;20039;-71
2022/06/02 03:15:32;;;;;;;6.55;3.65;;;;;;;15.93;70.16;94972.44;5056175;28;20522;-72
2022/06/02 03:18:14;;;;;;;5.60;3.20;;;;;;;15.85;70.21;94978.47;5070084;28;20017;-72
2022/06/02 03:21:04;;;;;;;4.93;3.30;;;;;;;15.91;69.85;94981.44;5070188;28;20119;-72
2022/06/02 03:23:41;;;;;;;5.97;2.67;;;;;;;15.97;69.43;94978.22;5067680;28;20178;-72
2022/06/02 03:26:43;;;;;;;4.40;3.20;;;;;;;16.03;69.19;94986.25;5052868;28;20225;-72
2022/06/02 03:29:36;;;;;;;4.15;3.05;;;;;;;16.05;69.14;94988.72;5071189;28;20094;-71
2022/06/02 03:32:14;;;;;;;5.40;3.20;;;;;;;16.14;68.76;94993.03;5071156;28;20391;-72
2022/06/02 03:34:58;;;;;;;4.72;3.30;;;;;;;16.19;68.60;94985.53;5071303;28;20462;-71
2022/06/02 03:38:14;;;;;;;4.30;3.45;;;;;;;16.27;68.51;94989.97;5071089;28;20521;-71
2022/06/02 03:40:48;;;;;;;5.25;3.15;;;;;;;16.31;68.26;94984.25;5048591;28;20071;-72
2022/06/02 03:43:14;;;;;;;5.95;3.10;;;;;;;16.20;68.53;94981.91;5067541;28;20068;-72
2022/06/02 03:46:04;;;;;;;4.80;3.10;;;;;;;16.27;68.60;94989.97;5069280;28;20052;-72
2022/06/02 03:48:30;;;;;;;4.93;3.15;;;;;;;16.37;68.13;94982.78;5060275;28;20529;-72
2022/06/02 03:51:33;;;;;;;4.03;3.28;;;;;;;16.38;67.95;94979.22;5050963;28;20025;-71
2022/06/02 03:54:21;;;;;;;4.47;3.05;;;;;;;16.42;67.60;94977.09;5050776;28;20473;-72
2022/06/02 03:57:15;;;;;;;5.13;3.13;;;;;;;16.39;67.54;94980.03;5064859;28;20494;-72
2022/06/02 04:00:03;;;;;;;5.82;3.08;;;;;;;16.41;67.66;94973.66;5052776;28;20064;-71
2022/06/02 04:02:35;;;;;;;5.72;3.35;;;;;;;16.42;67.74;94970.03;5059952;28;20036;-71
2022/06/02 04:05:27;;;;;;;4.60;3.40;;;;;;;16.71;67.06;94976.66;5056824;28;20119;-72
2022/06/02 04:08:13;;;;;;;4.47;3.40;;;;;;;17.55;65.00;94982.66;5050706;28;20029;-72
2022/06/02 04:11:07;;;;;;;4.03;2.75;;;;;;;18.73;61.14;94970.47;5032742;28;20144;-72
2022/06/02 04:13:53;;;;;;;4.68;2.97;;;;;;;19.60;58.22;94974.66;5060542;28;20031;-72
2022/06/02 04:16:34;;;;;;;4.75;2.90;;;;;;;20.40;55.35;94962.63;5055347;28;20070;-71
2022/06/02 04:22:30;;;;;;;3.72;2.40;;;;;;;21.88;50.88;94964.72;5066004;28;20052;-72
2022/06/02 04:25:19;;;;;;;4.38;2.60;;;;;;;22.62;49.13;94955.38;5059705;28;20032;-72
2022/06/02 04:27:57;;;;;;;4.30;2.70;;;;;;;23.30;47.28;94969.44;5055543;28;20025;-72
2022/06/02 04:30:54;;;;;;;4.88;2.75;;;;;;;23.94;45.59;94960.09;5061625;28;20037;-74
2022/06/02 04:33:48;;;;;;;4.57;2.28;;;;;;;24.77;44.15;94950.66;5069456;28;20033;-73
2022/06/02 04:36:20;;;;;;;4.68;2.38;;;;;;;25.63;42.18;94948.31;5052441;28;20087;-74
2022/06/02 04:39:07;;;;;;;3.28;2.47;;;;;;;26.07;41.35;94948.34;5069823;28;20029;-73
2022/06/02 04:42:19;;;;;;;5.07;2.70;;;;;;;25.89;41.48;94954.47;5037158;28;20410;-78
2022/06/02 04:45:06;;;;;;;2.67;2.30;;;;;;;25.56;42.57;94957.38;5059878;28;20068;-78
2022/06/02 04:47:39;;;;;;;4.43;2.50;;;;;;;24.41;45.83;94955.50;5063494;28;20418;-72
2022/06/02 04:50:07;;;;;;;7.00;3.03;;;;;;;23.60;48.29;94964.56;5070906;28;20036;-73
2022/06/02 04:52:56;;;;;;;4.95;2.60;;;;;;;23.39;49.57;94956.78;5070447;28;20028;-72
2022/06/02 04:55:39;;;;;;;6.28;3.00;;;;;;;23.19;48.66;94957.59;5056143;28;20045;-73
2022/06/02 04:58:17;;;;;;;6.30;3.08;;;;;;;23.06;49.34;94962.84;5072960;28;20027;-72
2022/06/02 05:00:51;;;;;;;8.00;3.90;;;;;;;22.56;50.48;94956.97;5071360;28;20039;-72
2022/06/02 05:03:25;;;;;;;6.25;3.30;;;;;;;22.36;50.85;94969.31;5071050;28;20563;-73
2022/06/02 05:05:50;;;;;;;4.43;3.55;;;;;;;22.58;50.42;94970.84;5054437;28;20036;-73
2022/06/02 05:08:51;;;;;;;5.20;3.17;;;;;;;22.56;50.32;94975.50;5071555;28;20032;-73
2022/06/02 05:11:19;;;;;;;;;;;;;;;22.15;52.08;94973.66;5065078;28;20110;-72
2022/06/02 05:14:14;;;;;;;7.45;3.65;;;;;;;22.32;51.54;94979.47;5071267;28;19990;-72
2022/06/02 05:17:12;;;;;;;4.15;3.50;;;;;;;22.58;50.70;94978.78;5062294;28;20064;-72
2022/06/02 05:20:01;;;;;;;5.43;3.70;;;;;;;22.58;50.41;94978.78;5070217;28;20091;-72
2022/06/02 05:22:34;;;;;;;9.45;3.83;;;;;;;22.66;50.96;94983.91;5071552;28;20166;-72
2022/06/02 05:25:18;;;;;;;5.78;3.75;;;;;;;22.67;50.42;94988.16;5070796;28;20040;-72
2022/06/02 05:27:53;;;;;;;6.38;3.60;;;;;;;22.75;50.57;94993.28;5071496;28;20093;-72
2022/06/02 05:30:42;;;;;;;6.30;3.53;;;;;;;22.79;50.69;94992.91;5073759;28;20431;-72
2022/06/02 05:33:07;;;;;;;6.15;3.20;;;;;;;22.74;49.83;94996.16;5072432;28;20029;-72
2022/06/02 05:35:41;;;;;;;7.03;3.75;;;;;;;22.70;50.75;95000.19;5073327;28;20036;-72
2022/06/02 05:38:11;;;;;;;5.75;3.85;;;;;;;22.55;52.22;94995.06;5072009;28;20059;-72
2022/06/02 05:40:38;;;;;;;6.38;4.00;;;;;;;22.33;53.18;94990.88;5073563;28;20097;-72
2022/06/02 05:43:21;;;;;;;7.15;4.07;;;;;;;22.19;53.40;94993.44;5054733;28;20025;-72
2022/06/02 05:45:59;;;;;;;7.32;3.35;;;;;;;22.03;52.65;94999.81;5072893;28;20044;-72
2022/06/02 05:48:58;;;;;;;6.53;3.33;;;;;;;22.18;53.27;94996.28;5072460;28;20086;-73
2022/06/02 05:51:36;;;;;;;5.80;3.45;;;;;;;22.32;53.71;94989.25;5059333;28;20067;-72
2022/06/02 05:54:26;;;;;;;7.13;4.20;;;;;;;22.34;52.95;94998.59;5035408;28;20029;-72
2022/06/02 05:57:06;;;;;;;5.32;3.60;;;;;;;22.11;53.77;94982.97;5059465;28;20518;-72
2022/06/02 05:59:32;;;;;;;;;;;;;;;22.27;54.60;94992.47;5052226;28;20029;-72
2022/06/02 06:02:18;;;;;;;9.55;4.00;;;;;;;22.44;53.44;94992.97;5052855;28;20356;-72
2022/06/02 06:05:05;;;;;;;6.55;3.72;;;;;;;22.45;52.92;95000.69;5052727;28;20040;-72
2022/06/02 06:07:50;;;;;;;7.20;3.53;;;;;;;22.58;52.66;95002.59;5058302;28;20021;-72
2022/06/02 06:10:23;;;;;;;4.68;3.33;;;;;;;22.69;53.02;95003.88;5066608;28;20041;-72
2022/06/02 06:12:58;;;;;;;4.93;3.13;;;;;;;22.81;51.67;95002.28;5052641;28;20025;-72
2022/06/02 06:15:39;;;;;;;7.88;3.10;;;;;;;22.94;51.99;94990.94;5059804;28;20032;-72
2022/06/02 06:18:04;;;;;;;3.60;2.80;;;;;;;23.07;51.74;94980.41;5071010;28;20517;-72
2022/06/02 06:20:49;;;;;;;4.82;3.33;;;;;;;23.15;50.54;94988.16;5071190;28;20072;-72
2022/06/02 06:23:32;;;;;;;5.22;3.05;;;;;;;23.11;50.08;94984.28;5071303;28;20477;-72
2022/06/02 06:26:13;;;;;;;6.07;3.17;;;;;;;23.15;50.79;94982.03;5070953;28;20094;-72
2022/06/02 06:28:51;;;;;;;4.13;3.00;;;;;;;23.30;50.58;94984.53;5054965;28;20036;-73
2022/06/02 06:31:19;;;;;;;6.85;3.08;;;;;;;23.46;49.51;94978.00;5072230;28;20051;-72
2022/06/02 06:34:16;;;;;;;7.15;3.15;;;;;;;23.58;48.19;94979.84;5070265;28;20028;-72
2022/06/02 06:36:57;;;;;;;4.00;2.85;;;;;;;23.73;47.74;94978.84;5050601;28;20403;-72
2022/06/02 06:39:26;;;;;;;;;;;;;;;23.87;48.37;94985.78;5051796;28;20037;-72
2022/06/02 06:42:13;;;;;;;7.88;2.80;;;;;;;24.01;47.15;94976.78;5062947;28;19960;-72
2022/06/02 06:44:48;;;;;;;5.72;2.80;;;;;;;24.13;47.42;94969.03;5072182;28;20489;-73
2022/06/02 06:47:44;;;;;;;4.85;3.15;;;;;;;24.21;47.09;94965.31;5037471;28;20391;-74
2022/06/02 06:50:31;;;;;;;9.30;2.55;;;;;;;24.24;45.33;94954.31;5065126;28;20441;-75
2022/06/02 06:53:29;;;;;;;3.80;2.40;;;;;;;24.39;46.07;94962.03;5069280;28;20036;-75
2022/06/02 06:56:04;;;;;;;4.03;2.45;;;;;;;24.60;45.53;94967.09;5068281;28;20052;-75
2022/06/02 06:58:35;;;;;;;4.10;2.60;;;;;;;24.73;45.24;94964.38;5071374;28;20032;-75
2022/06/02 07:01:20;;;;;;;4.82;2.65;;;;;;;24.83;44.07;94958.63;5069682;28;20163;-75
2022/06/02 07:04:10;;;;;;;5.82;2.72;;;;;;;24.98;44.30;94961.78;5053140;28;20082;-76
2022/06/02 07:06:54;;;;;;;5.18;2.58;;;;;;;25.11;44.80;94965.41;5069395;28;20025;-73
2022/06/02 07:09:31;;;;;;;4.65;2.70;;;;;;;25.32;44.25;94964.28;5068994;28;20118;-73
2022/06/02 07:15:23;;;;;;;4.65;2.50;;;;;;;25.56;44.08;94960.03;5055990;28;20043;-73
2022/06/02 07:17:48;;;;;;;6.75;2.40;;;;;;;25.54;44.34;94967.41;5064827;28;20045;-73
2022/06/02 07:20:32;;;;;;;6.70;2.67;;;;;;;25.57;43.99;94964.31;5071527;28;20066;-73
2022/06/02 07:23:05;;;;;;;3.88;2.67;;;;;;;25.59;43.91;94970.22;5069532;28;20472;-73
2022/06/02 07:25:34;;;;;;;6.40;2.70;;;;;;;25.66;43.36;94971.00;5068472;28;20025;-73
2022/06/02 07:28:05;;;;;;;6.20;2.60;;;;;;;25.71;42.41;94967.69;5067950;28;20043;-73
2022/06/02 07:30:37;;;;;;;6.18;2.67;;;;;;;25.79;42.37;94976.19;5052117;28;20037;-73
2022/06/02 07:33:24;;;;;;;4.22;2.80;;;;;;;25.78;41.72;94971.91;5069611;28;20089;-73
2022/06/02 07:36:01;;;;;;;7.30;2.50;;;;;;;25.83;42.24;94973.97;5069489;28;20462;-73
2022/06/02 07:38:55;;;;;;;3.80;2.80;;;;;;;25.61;43.36;94976.16;5069665;28;20671;-73
2022/06/02 07:41:27;;;;;;;6.32;3.30;;;;;;;25.28;43.30;94981.69;5069594;28;20060;-73
2022/06/02 07:44:22;;;;;;;5.90;3.03;;;;;;;25.27;45.16;94974.72;5070870;28;20029;-73
2022/06/02 07:47:21;;;;;;;8.07;4.03;;;;;;;25.36;45.39;94970.81;5070892;28;20043;-73
2022/06/02 07:50:05;;;;;;;5.13;2.78;;;;;;;25.48;45.54;94970.94;5069627;28;20025;-73
2022/06/02 07:52:39;;;;;;;5.72;2.80;;;;;;;25.60;44.94;94972.69;5070614;28;20044;-73
2022/06/02 07:55:05;;;;;;;7.00;2.85;;;;;;;25.62;43.26;94975.13;5069733;28;20036;-73
2022/06/02 07:57:53;;;;;;;6.35;3.28;;;;;;;25.47;44.16;94969.31;5070935;28;20402;-73
2022/06/02 08:00:20;;;;;;;8.27;3.25;;;;;;;25.52;45.05;94972.94;5055090;28;20063;-73
2022/06/02 08:02:57;;;;;;;5.30;3.13;;;;;;;25.63;44.23;94974.91;5053055;28;20036;-73
2022/06/02 08:05:43;;;;;;;7.80;2.70;;;;;;;25.79;43.77;94970.88;5070604;28;20044;-73
2022/06/02 08:08:29;;;;;;;5.40;2.72;;;;;;;25.88;42.94;94975.94;5036838;28;20060;-73
2022/06/02 08:11:00;;;;;;;5.70;2.70;;;;;;;26.03;43.55;94971.13;5038564;28;20064;-73
2022/06/02 08:13:36;;;;;;;3.63;2.47;;;;;;;26.16;43.35;94972.81;5070678;28;20045;-74
2022/06/02 08:16:14;;;;;;;5.25;2.60;;;;;;;26.25;44.35;94974.19;5070640;28;20036;-74
2022/06/02 08:19:02;;;;;;;3.70;2.53;;;;;;;26.45;43.73;94963.31;5069446;28;20386;-74
2022/06/02 08:21:31;;;;;;;5.88;2.80;;;;;;;26.62;43.51;94975.03;5069316;28;20070;-73
2022/06/02 08:24:07;;;;;;;6.35;3.30;;;;;;;26.67;42.78;94964.50;5070504;28;20371;-73
2022/06/02 08:27:04;;;;;;;8.52;2.95;;;;;;;26.66;42.94;94962.06;5069479;28;20163;-73
2022/06/02 08:29:36;;;;;;;3.22;2.58;;;;;;;26.74;43.13;94964.44;5055153;28;20040;-74
2022/06/02 08:32:10;;;;;;;6.18;2.65;;;;;;;26.82;42.78;94961.47;5069390;28;20031;-74
2022/06/02 08:34:45;;;;;;;5.45;3.00;;;;;;;26.81;42.75;94967.03;5069175;28;20033;-73
2022/06/02 08:37:25;;;;;;;6.47;3.10;;;;;;;26.87;43.33;94955.47;5070432;28;20035;-74
2022/06/02 08:39:59;;;;;;;5.45;2.83;;;;;;;27.00;43.13;94952.63;5069193;28;20086;-73
2022/06/02 08:42:43;;;;;;;3.88;2.78;;;;;;;27.11;41.77;94962.53;5069300;28;20066;-73
2022/06/02 08:45:44;;;;;;;8.05;2.78;;;;;;;27.09;41.28;94955.78;5070666;28;20624;-74
2022/06/02 08:48:49;;;;;;;4.72;2.90;;;;;;;27.15;40.60;94955.69;5069053;28;20070;-73
2022/06/02 08:51:24;;;;;;;5.93;2.50;;;;;;;27.34;40.09;94959.13;5069606;28;20032;-73
2022/06/02 08:54:26;;;;;;;5.32;2.80;;;;;;;27.50;40.47;94957.69;5070244;28;20414;-73
2022/06/02 08:57:19;;;;;;;5.07;2.75;;;;;;;27.54;39.12;94960.69;5070203;28;20514;-73
2022/06/02 09:00:22;;;;;;;6.65;2.50;;;;;;;27.53;39.21;94962.56;5070377;28;20025;-73
2022/06/02 09:03:09;;;;;;;4.10;2.42;;;;;;;27.75;38.95;94959.31;5070721;28;20037;-73
2022/06/02 09:06:09;;;;;;;3.80;2.30;;;;;;;27.79;37.65;94960.50;5072778;28;20041;-73
2022/06/02 09:08:39;;;;;;;4.03;2.30;;;;;;;27.88;38.79;94958.31;5073775;28;20104;-73
2022/06/02 09:11:32;;;;;;;5.32;2.20;;;;;;;27.87;37.01;94960.19;5073796;28;20048;-73
2022/06/02 09:14:25;;;;;;;5.68;2.30;;;;;;;27.92;37.50;94960.31;5073710;28;20063;-73
2022/06/02 09:16:55;;;;;;;3.78;2.10;;;;;;;27.92;37.02;94954.97;5072476;28;20058;-73
2022/06/02 09:19:48;;;;;;;3.92;2.08;;;;;;;28.03;35.98;94956.84;5073783;28;20016;-73
2022/06/02 09:22:54;;;;;;;4.18;1.95;;;;;;;28.09;33.42;94954.28;5072388;28;20056;-73
2022/06/02 09:25:30;;;;;;;3.47;1.83;;;;;;;28.15;33.27;94953.34;5038034;28;20461;-73
2022/06/02 09:28:20;;;;;;;6.70;2.40;;;;;;;28.24;33.68;94950.06;5072281;28;20054;-73
2022/06/02 09:31:17;;;;;;;4.82;2.20;;;;;;;28.23;33.63;94953.00;5073914;28;20032;-73
2022/06/02 09:34:07;;;;;;;3.63;1.85;;;;;;;28.36;33.27;94947.41;5072253;28;20024;-73
2022/06/02 09:36:48;;;;;;;3.65;2.17;;;;;;;28.28;33.76;94943.22;5073380;28;20487;-73
2022/06/02 09:39:28;;;;;;;4.68;2.10;;;;;;;28.33;33.87;94945.19;5073337;28;20485;-73
2022/06/02 09:42:17;;;;;;;5.15;2.00;;;;;;;28.42;33.86;94945.66;5073184;28;20041;-73
2022/06/02 09:45:01;;;;;;;4.18;2.00;;;;;;;28.43;32.70;94937.44;5073399;28;20028;-73
2022/06/02 09:47:45;;;;;;;3.50;1.95;;;;;;;28.40;33.59;94945.88;5073242;28;20071;-72
2022/06/02 09:50:20;;;;;;;4.18;1.80;;;;;;;28.41;33.75;94936.00;5072153;28;20047;-73
2022/06/02 09:53:27;;;;;;;5.05;2.10;;;;;;;28.52;32.36;94943.22;5071771;28;20040;-73
2022/06/02 09:56:14;;;;;;;6.10;2.10;;;;;;;28.46;32.91;94936.94;5030608;28;20626;-73
2022/06/02 09:59:07;;;;;;;4.85;1.77;;;;;;;28.39;30.59;94944.28;5030672;28;20497;-73
2022/06/02 10:02:15;;;;;;;3.70;1.70;;;;;;;28.39;29.91;94938.09;5059240;28;20055;-73
2022/06/02 10:04:57;;;;;;;3.35;1.83;;;;;;;28.24;32.02;94934.06;5070257;28;20036;-73
2022/06/02 10:07:33;;;;;;;4.32;1.83;;;;;;;28.42;30.05;94929.63;5071742;28;20218;-73
2022/06/02 10:10:18;;;;;;;7.03;2.20;;;;;;;28.54;28.79;94929.63;5071402;28;20135;-73
2022/06/02 10:12:56;;;;;;;4.85;1.95;;;;;;;28.45;26.93;94921.19;5072768;28;20051;-73
2022/06/02 10:15:55;;;;;;;5.13;1.90;;;;;;;28.40;29.13;94924.50;5071225;28;20036;-73
2022/06/02 10:18:57;;;;;;;6.20;2.28;;;;;;;28.47;29.67;94924.41;5072648;28;20453;-73
2022/06/02 10:21:56;;;;;;;5.90;2.05;;;;;;;28.50;26.54;94932.78;5057104;28;20441;-73
2022/06/02 10:24:34;;;;;;;5.90;2.22;;;;;;;28.38;29.30;94929.28;5070969;28;20116;-73
2022/06/02 10:27:25;;;;;;;4.32;1.80;;;;;;;28.39;29.61;94922.06;5071222;28;20060;-73
2022/06/02 10:30:39;;;;;;;4.13;2.15;;;;;;;28.42;27.56;94927.81;5054510;28;20033;-73
2022/06/02 10:33:32;;;;;;;7.13;2.35;;;;;;;28.40;26.68;94929.84;5063252;28;20048;-73
2022/06/02 10:36:28;;;;;;;5.63;1.80;;;;;;;28.51;27.93;94923.69;5072115;28;20421;-73
2022/06/02 10:39:11;;;;;;;3.58;1.60;;;;;;;28.69;29.44;94911.22;5072069;28;20078;-73
2022/06/02 10:42:11;;;;;;;5.30;2.00;;;;;;;28.82;27.75;94899.44;5072013;28;20037;-73
2022/06/02 10:44:46;;;;;;;5.55;1.92;;;;;;;28.98;29.64;94909.38;5072257;28;20020;-73
2022/06/02 10:47:49;;;;;;;5.55;1.83;;;;;;;29.02;29.26;94910.50;5071068;28;20072;-73
2022/06/02 10:50:59;;;;;;;5.43;1.83;;;;;;;28.90;28.71;94901.75;5070622;28;20482;-73
2022/06/02 10:53:54;;;;;;;5.82;2.03;;;;;;;28.93;29.81;94899.38;5071927;28;20045;-73
2022/06/02 10:56:25;;;;;;;6.38;2.13;;;;;;;29.04;28.93;94899.63;5056563;28;20052;-73
2022/06/02 10:59:18;;;;;;;7.57;2.50;;;;;;;29.06;28.59;94897.50;5071819;28;20033;-73
2022/06/02 11:02:11;;;;;;;7.00;2.08;;;;;;;29.12;29.13;94889.34;5070485;28;20044;-73
2022/06/02 11:04:56;;;;;;;7.20;2.00;;;;;;;29.21;28.12;94888.94;5071815;28;20050;-73
2022/06/02 11:08:07;;;;;;;5.70;2.00;;;;;;;29.26;28.97;94883.69;5050379;28;20048;-73
2022/06/02 11:11:08;;;;;;;6.57;2.00;;;;;;;29.26;28.42;94887.16;5055149;28;20048;-73
2022/06/02 11:13:57;;;;;;;5.85;2.00;;;;;;;29.25;27.88;94882.03;5070120;28;20124;-73
2022/06/02 11:16:57;;;;;;;6.03;2.30;;;;;;;29.37;28.13;94880.13;5070330;28;20035;-73
2022/06/02 11:19:41;;;;;;;7.72;2.10;;;;;;;29.51;28.06;94885.97;5071574;28;20086;-73
2022/06/02 11:22:40;;;;;;;9.07;2.30;;;;;;;29.60;28.56;94884.50;5071252;28;20064;-73
2022/06/02 11:25:15;;;;;;;4.87;1.90;;;;;;;29.47;27.37;94882.94;5071301;28;20036;-73
2022/06/02 11:27:58;;;;;;;5.80;2.10;;;;;;;29.46;27.07;94883.22;5070926;28;20354;-73
2022/06/02 11:30:55;;;;;;;4.10;2.00;;;;;;;29.46;27.09;94883.22;5069991;28;20112;-73
2022/06/02 11:33:35;;;;;;;4.93;1.70;;;;;;;29.48;26.11;94879.22;5056525;28;20036;-73
2022/06/02 11:36:32;;;;;;;4.18;1.90;;;;;;;29.43;27.12;94886.38;5071146;28;20469;-73
2022/06/02 11:39:19;;;;;;;4.97;1.92;;;;;;;29.45;28.20;94881.56;5056595;28;20135;-73
2022/06/02 11:42:25;;;;;;;6.68;2.47;;;;;;;29.55;27.17;94876.38;5069856;28;20063;-73
2022/06/02 11:45:02;;;;;;;5.20;2.10;;;;;;;29.47;28.35;94879.47;5070005;28;20029;-73
2022/06/02 11:47:45;;;;;;;3.45;1.75;;;;;;;29.52;27.83;94880.34;5069795;28;20123;-73
2022/06/02 11:50:48;;;;;;;5.38;1.75;;;;;;;29.60;28.42;94873.78;5069864;28;20036;-73
2022/06/02 11:53:32;;;;;;;4.28;2.00;;;;;;;29.72;28.92;94871.84;5070948;28;20102;-73
2022/06/02 11:55:58;;;;;;;7.07;2.28;;;;;;;29.85;29.41;94865.34;5069669;28;20483;-73
2022/06/02 11:58:57;;;;;;;4.90;2.13;;;;;;;29.91;27.52;94864.38;5069677;28;20104;-74
2022/06/02 12:01:24;;;;;;;4.38;1.90;;;;;;;29.73;29.63;94860.13;5069626;28;20040;-73
2022/06/02 12:04:08;;;;;;;6.40;1.98;;;;;;;29.59;29.16;94866.84;5070859;28;20522;-73
2022/06/02 12:06:58;;;;;;;4.43;2.10;;;;;;;29.42;29.62;94860.66;5069535;28;20032;-73
2022/06/02 12:10:02;;;;;;;5.13;1.90;;;;;;;29.29;28.96;94856.47;5069402;28;20432;-73
2022/06/02 12:12:52;;;;;;;4.88;2.03;;;;;;;29.48;30.15;94857.03;5064992;28;20051;-73
2022/06/02 12:15:17;;;;;;;;;;;;;;;29.30;30.94;94853.53;5071536;28;20041;-73
2022/06/02 12:18:22;;;;;;;3.75;2.22;;;;;;;29.12;31.48;94840.41;5070734;28;20431;-73
2022/06/02 12:21:12;;;;;;;5.70;2.22;;;;;;;29.28;33.20;94855.66;5070956;28;20397;-73
2022/06/02 12:23:56;;;;;;;3.75;2.15;;;;;;;29.31;31.01;94855.16;5070627;28;20032;-73
2022/06/02 12:26:49;;;;;;;4.95;2.17;;;;;;;29.45;30.71;94852.13;5069298;28;20405;-73
2022/06/02 12:29:36;;;;;;;3.30;2.50;;;;;;;29.51;29.53;94853.84;5054932;28;20075;-73
2022/06/02 12:32:14;;;;;;;5.25;2.28;;;;;;;29.60;29.75;94845.16;5070501;28;20405;-73
2022/06/02 12:34:52;;;;;;;5.68;2.13;;;;;;;29.74;30.50;94853.69;5069392;28;20090;-73
2022/06/02 12:37:17;;;;;;;4.43;2.53;;;;;;;29.80;29.79;94852.69;5070592;28;20028;-73
2022/06/02 12:40:02;;;;;;;6.43;2.45;;;;;;;29.54;29.87;94845.34;5074592;28;20394;-73
2022/06/02 12:42:53;;;;;;;6.10;2.42;;;;;;;29.33;31.83;94849.56;5074370;28;20075;-73
2022/06/02 12:45:34;;;;;;;5.22;2.60;;;;;;;29.24;30.74;94854.50;5056240;28;20036;-73
2022/06/02 12:48:33;;;;;;;7.78;2.70;;;;;;;29.28;32.75;94861.00;5074221;28;20039;-73
2022/06/02 12:51:11;;;;;;;4.60;2.30;;;;;;;29.12;32.39;94856.44;5074467;28;20055;-73
2022/06/02 12:53:39;;;;;;;5.75;2.35;;;;;;;28.88;32.47;94861.06;5074180;28;20027;-72
2022/06/02 12:56:28;;;;;;;5.97;2.25;;;;;;;28.43;34.71;94857.28;5074026;28;20036;-73
2022/06/02 12:58:59;;;;;;;6.60;2.15;;;;;;;28.13;35.81;94857.44;5073927;28;20060;-73
2022/06/02 13:01:46;;;;;;;5.00;2.63;;;;;;;28.07;37.16;94853.88;5073983;28;20067;-73
2022/06/02 13:04:34;;;;;;;3.85;2.10;;;;;;;28.09;41.25;94850.16;5074251;28;20089;-73